Time;durP1;ratioP1;P1;durP2;ratioP2;P2;SDS_P1;SDS_P2;PMS_P1;PMS_P2;Temp;Humidity;BMP_temperature;BMP_pressure;BME280_temperature;BME280_humidity;BME280_pressure;Samples;Min_cycle;Max_cycle;Signal;HPM_P1;HPM_P2
2022/01/15 00:01:00;;;;;;;3.37;1.10;;;;;;;0.61;77.24;98167.25;1681402;85;21364;-78
2022/01/15 00:04:04;;;;;;;3.65;1.52;;;;;;;0.56;78.17;98184.36;1680812;85;21355;-78
2022/01/15 00:07:10;;;;;;;2.98;1.22;;;;;;;0.50;77.48;98202.52;1681478;85;21208;-78
2022/01/15 00:10:15;;;;;;;3.80;1.10;;;;;;;0.50;77.92;98185.87;1681558;85;21379;-78
2022/01/15 00:13:26;;;;;;;3.35;1.37;;;;;;;0.48;77.57;98203.19;1681486;85;21205;-78
2022/01/15 00:16:33;;;;;;;4.67;1.45;;;;;;;0.47;78.06;98190.25;1680518;85;21240;-79
2022/01/15 00:19:44;;;;;;;10.32;1.75;;;;;;;0.47;78.51;98205.05;1680512;85;21347;-78
2022/01/15 00:22:43;;;;;;;2.65;1.22;;;;;;;0.46;78.95;98211.41;1681535;85;21327;-78
2022/01/15 00:25:48;;;;;;;7.90;1.30;;;;;;;0.47;78.85;98218.97;1681242;85;21343;-78
2022/01/15 00:28:54;;;;;;;3.47;0.85;;;;;;;0.47;78.51;98221.66;1680219;85;21714;-78
2022/01/15 00:31:59;;;;;;;5.65;1.40;;;;;;;0.47;78.85;98220.31;1680215;85;21371;-78
2022/01/15 00:35:05;;;;;;;2.20;1.25;;;;;;;0.44;78.89;98224.19;1680140;85;21394;-78
2022/01/15 00:38:10;;;;;;;3.58;1.22;;;;;;;0.42;78.62;98220.80;1681600;85;21327;-78
2022/01/15 00:41:17;;;;;;;3.60;1.02;;;;;;;0.40;78.10;98237.62;1680981;85;21864;-78
2022/01/15 00:44:22;;;;;;;2.85;0.95;;;;;;;0.41;78.01;98219.63;1681196;85;21351;-78
2022/01/15 00:47:31;;;;;;;2.15;1.00;;;;;;;0.39;78.09;98218.97;1679717;85;21346;-78
2022/01/15 00:50:34;;;;;;;3.47;1.37;;;;;;;0.39;77.12;98244.52;1680313;85;21422;-78
2022/01/15 00:53:39;;;;;;;4.40;1.50;;;;;;;0.41;77.50;98224.50;1679970;85;21887;-78
2022/01/15 00:56:46;;;;;;;1.55;0.95;;;;;;;0.39;77.17;98229.72;1680690;85;21404;-78
2022/01/15 00:59:52;;;;;;;6.55;1.32;;;;;;;0.37;77.21;98246.00;1679986;85;21213;-78
2022/01/15 01:02:59;;;;;;;2.98;1.10;;;;;;;0.40;76.81;98211.23;1679984;85;21345;-78
2022/01/15 01:06:04;;;;;;;9.00;2.72;;;;;;;0.43;77.21;98254.79;1681001;85;21864;-78
2022/01/15 01:09:09;;;;;;;3.47;0.98;;;;;;;0.45;76.90;98254.61;1680135;85;21376;-78
2022/01/15 01:12:35;;;;;;;3.98;1.50;;;;;;;0.48;77.08;98262.38;1681391;85;21273;-78
2022/01/15 01:25:38;;;;;;;3.27;1.35;;;;;;;0.41;76.63;98266.70;1664871;85;21747;-78
2022/01/15 01:28:43;;;;;;;3.50;1.35;;;;;;;0.44;77.07;98256.97;1652438;87;21330;-78
2022/01/15 01:32:01;;;;;;;1.80;1.10;;;;;;;0.43;77.08;98270.92;1652415;87;21862;-78
2022/01/15 01:35:08;;;;;;;6.78;1.20;;;;;;;0.48;76.94;98251.61;1652232;87;21357;-78
2022/01/15 01:39:00;;;;;;;8.73;1.62;;;;;;;0.50;77.11;98257.66;1679020;85;21314;-78
2022/01/15 01:41:18;;;;;;;3.40;1.65;;;;;;;0.51;77.28;98262.03;1661094;85;21391;-78
2022/01/15 01:44:23;;;;;;;6.80;1.35;;;;;;;0.49;77.00;98262.70;1664138;86;21372;-78
2022/01/15 01:47:39;;;;;;;4.30;1.10;;;;;;;0.46;76.77;98250.91;1664128;86;21375;-78
2022/01/15 01:50:36;;;;;;;6.12;1.42;;;;;;;0.46;76.80;98271.09;1664870;86;21974;-78
2022/01/15 01:53:43;;;;;;;4.65;1.47;;;;;;;0.46;77.20;98290.76;1665361;86;21209;-78
2022/01/15 01:56:50;;;;;;;3.02;1.10;;;;;;;0.40;77.50;98292.76;1665235;86;21371;-78
2022/01/15 01:59:55;;;;;;;2.02;1.05;;;;;;;0.36;77.07;98275.25;1664068;86;21844;-78
2022/01/15 02:03:04;;;;;;;1.87;1.10;;;;;;;0.38;77.07;98293.44;1665446;86;21317;-79
2022/01/15 02:06:09;;;;;;;4.05;1.27;;;;;;;0.37;76.83;98300.30;1664911;86;21260;-79
2022/01/15 02:09:16;;;;;;;6.78;1.80;;;;;;;0.33;76.53;98289.04;1665418;86;21213;-79
2022/01/15 02:12:22;;;;;;;3.22;1.20;;;;;;;0.30;76.84;98304.14;1665558;86;21221;-79
2022/01/15 02:15:29;;;;;;;6.37;1.30;;;;;;;0.23;77.19;98305.27;1665422;86;21315;-79
2022/01/15 02:18:36;;;;;;;3.05;1.10;;;;;;;0.18;77.74;98309.44;1664208;86;21355;-78
2022/01/15 02:24:56;;;;;;;3.67;1.27;;;;;;;0.08;77.91;98317.62;1670242;85;21326;-78
2022/01/15 02:28:01;;;;;;;8.63;1.30;;;;;;;0.06;78.22;98314.25;1678628;85;21854;-79
2022/01/15 02:31:13;;;;;;;2.05;1.30;;;;;;;0.02;78.36;98323.63;1677734;85;21319;-78
2022/01/15 02:34:18;;;;;;;3.45;1.42;;;;;;;0.02;78.15;98318.77;1679211;85;21212;-78
2022/01/15 02:37:24;;;;;;;3.70;0.95;;;;;;;0.05;77.40;98329.17;1682673;84;21272;-78
2022/01/15 02:40:32;;;;;;;8.60;1.20;;;;;;;0.09;76.73;98334.59;1692620;85;21553;-78
2022/01/15 02:43:38;;;;;;;1.98;1.22;;;;;;;0.12;76.34;98319.49;1691082;85;21311;-78
2022/01/15 02:49:55;;;;;;;5.17;0.95;;;;;;;0.18;75.20;98303.55;1678396;85;21965;-79
2022/01/15 02:53:01;;;;;;;5.90;1.05;;;;;;;0.24;74.99;98350.50;1692335;85;21339;-78
2022/01/15 02:56:07;;;;;;;4.40;1.17;;;;;;;0.30;75.01;98365.99;1692389;85;21323;-78
2022/01/15 02:59:14;;;;;;;2.37;1.20;;;;;;;0.34;74.75;98360.64;1691358;85;21997;-78
2022/01/15 03:02:19;;;;;;;3.30;1.17;;;;;;;0.36;73.97;98359.97;1692429;85;21783;-78
2022/01/15 03:05:25;;;;;;;4.22;1.30;;;;;;;0.40;74.35;98356.47;1692225;85;21758;-78
2022/01/15 03:08:32;;;;;;;2.37;0.93;;;;;;;0.43;74.27;98379.03;1691816;85;21204;-78
2022/01/15 03:11:40;;;;;;;9.70;1.42;;;;;;;0.42;74.96;98382.19;1691201;84;21752;-78
2022/01/15 03:14:48;;;;;;;2.50;0.82;;;;;;;0.37;75.50;98376.44;1692277;85;21371;-78
2022/01/15 03:17:56;;;;;;;4.30;1.52;;;;;;;0.34;76.05;98384.84;1692053;85;21366;-78
2022/01/15 03:21:01;;;;;;;4.78;1.30;;;;;;;0.32;76.47;98392.22;1692163;85;21310;-78
2022/01/15 03:24:07;;;;;;;3.33;1.20;;;;;;;0.31;77.08;98390.53;1692367;85;21366;-78
2022/01/15 03:27:13;;;;;;;3.27;1.15;;;;;;;0.31;77.49;98396.41;1692284;85;21215;-78
2022/01/15 03:30:19;;;;;;;7.50;1.17;;;;;;;0.29;78.52;98407.84;1692272;85;21766;-78
2022/01/15 03:33:24;;;;;;;3.62;1.10;;;;;;;0.31;78.99;98411.20;1692222;85;21838;-78
2022/01/15 03:36:30;;;;;;;3.92;1.30;;;;;;;0.33;79.56;98422.64;1692189;85;21196;-78
2022/01/15 03:39:38;;;;;;;9.75;1.00;;;;;;;0.34;79.85;98435.11;1679588;85;21859;-78
2022/01/15 03:42:43;;;;;;;2.37;1.10;;;;;;;0.32;80.29;98424.99;1680014;85;21323;-78
2022/01/15 03:45:49;;;;;;;3.72;1.15;;;;;;;0.32;80.19;98439.78;1679732;84;21248;-78
2022/01/15 03:48:55;;;;;;;5.28;1.10;;;;;;;0.32;80.69;98454.07;1679545;85;21269;-78
2022/01/15 03:52:01;;;;;;;3.00;1.50;;;;;;;0.32;81.13;98432.55;1680553;85;21292;-78
2022/01/15 03:55:14;;;;;;;2.67;1.45;;;;;;;0.32;81.73;98463.98;1857737;76;22173;-81
2022/01/15 03:58:19;;;;;;;1.57;1.02;;;;;;;0.22;82.45;98455.51;1785868;80;21161;-75
2022/01/15 04:01:24;;;;;;;5.40;1.15;;;;;;;0.18;83.36;98459.50;1785499;79;21852;-81
2022/01/15 04:04:30;;;;;;;12.90;1.07;;;;;;;0.13;83.49;98459.13;1785066;80;21169;-77
2022/01/15 04:07:36;;;;;;;1.70;0.90;;;;;;;0.08;84.11;98469.51;1784643;79;21861;-82
2022/01/15 04:10:42;;;;;;;3.92;1.30;;;;;;;0.02;85.12;98484.08;1785976;79;21302;-76
2022/01/15 04:13:47;;;;;;;3.15;1.45;;;;;;;-0.05;86.65;98460.51;1785703;80;21184;-76
2022/01/15 04:16:54;;;;;;;7.37;1.57;;;;;;;-0.14;88.19;98478.03;1785102;79;21322;-76
2022/01/15 04:19:59;;;;;;;2.67;1.55;;;;;;;-0.19;89.41;98491.92;1786082;80;21204;-78
2022/01/15 04:23:04;;;;;;;5.12;2.17;;;;;;;-0.21;89.96;98489.06;1785981;80;21137;-81
2022/01/15 04:26:11;;;;;;;4.12;1.50;;;;;;;-0.26;90.22;98495.73;1785544;79;21187;-76
2022/01/15 04:29:16;;;;;;;7.03;1.45;;;;;;;-0.28;89.83;98492.36;1786245;80;21251;-76
2022/01/15 04:32:20;;;;;;;7.95;1.42;;;;;;;-0.24;89.55;98506.81;1786104;79;21331;-76
2022/01/15 04:35:25;;;;;;;6.20;1.30;;;;;;;-0.20;88.83;98510.89;1786121;79;21291;-76
2022/01/15 04:38:32;;;;;;;3.83;1.30;;;;;;;-0.17;88.14;98491.79;1786250;80;21153;-81
2022/01/15 04:41:37;;;;;;;3.80;1.25;;;;;;;-0.16;88.29;98500.19;1786183;79;21290;-75
2022/01/15 04:44:43;;;;;;;3.60;1.32;;;;;;;-0.13;87.76;98532.98;1786188;80;21264;-80
2022/01/15 04:47:50;;;;;;;3.40;1.25;;;;;;;-0.11;87.72;98530.14;1786200;80;21825;-81
2022/01/15 04:50:55;;;;;;;6.80;1.82;;;;;;;-0.13;90.91;98530.80;1786151;79;21861;-76
2022/01/15 04:54:00;;;;;;;7.10;1.60;;;;;;;-0.24;94.16;98559.21;1786261;80;21331;-81
2022/01/15 04:57:04;;;;;;;7.20;2.15;;;;;;;-0.38;95.24;98545.28;1786450;79;21739;-76
2022/01/15 05:00:13;;;;;;;5.05;1.75;;;;;;;-0.45;94.87;98546.89;1786411;80;21192;-77
2022/01/15 05:03:18;;;;;;;6.08;1.27;;;;;;;-0.45;94.23;98549.58;1786438;80;21263;-81
2022/01/15 05:06:23;;;;;;;6.75;1.60;;;;;;;-0.43;92.97;98555.63;1785815;79;21201;-81
2022/01/15 05:09:28;;;;;;;4.62;2.02;;;;;;;-0.38;92.82;98561.40;1785854;80;21347;-81
2022/01/15 05:12:41;;;;;;;6.17;1.50;;;;;;;-0.34;93.02;98574.89;1785894;79;21319;-80
2022/01/15 05:15:42;;;;;;;3.00;1.25;;;;;;;-0.31;93.07;98567.88;1785700;79;21288;-76
2022/01/15 05:18:48;;;;;;;3.25;1.27;;;;;;;-0.27;92.80;98582.72;1785875;80;21260;-80
2022/01/15 05:21:55;;;;;;;5.87;1.55;;;;;;;-0.22;92.30;98587.64;1785849;79;21204;-81
2022/01/15 05:25:01;;;;;;;14.20;1.45;;;;;;;-0.17;91.79;98592.56;1785353;80;21192;-77
2022/01/15 05:28:08;;;;;;;5.42;1.50;;;;;;;-0.12;91.42;98591.61;1785791;80;21149;-76
2022/01/15 05:31:13;;;;;;;8.18;2.08;;;;;;;-0.08;91.18;98596.54;1785734;79;21200;-81
2022/01/15 05:34:17;;;;;;;4.60;1.87;;;;;;;-0.04;91.09;98591.22;1785889;80;21272;-80
2022/01/15 05:37:22;;;;;;;4.78;1.32;;;;;;;0.01;90.98;98598.83;1785932;79;21287;-76
2022/01/15 05:40:27;;;;;;;4.33;1.92;;;;;;;0.06;90.86;98599.22;1785860;79;21192;-80
2022/01/15 05:43:31;;;;;;;4.22;1.60;;;;;;;0.09;90.74;98602.08;1778389;80;21156;-76
2022/01/15 05:46:40;;;;;;;5.30;1.30;;;;;;;0.10;90.41;98603.30;1748476;82;21314;-81
2022/01/15 05:49:45;;;;;;;6.78;1.82;;;;;;;0.12;90.60;98609.36;1749450;82;21817;-81
2022/01/15 05:52:52;;;;;;;2.60;1.40;;;;;;;0.13;90.15;98606.16;1747549;82;22082;-76
2022/01/15 05:55:57;;;;;;;3.75;1.67;;;;;;;0.12;89.02;98632.71;1747104;82;21302;-76
2022/01/15 05:59:03;;;;;;;6.97;1.98;;;;;;;0.11;88.97;98643.97;1749079;81;21271;-76
2022/01/15 06:02:08;;;;;;;4.78;1.60;;;;;;;0.08;89.90;98629.97;1748118;82;21310;-81
2022/01/15 06:05:13;;;;;;;6.45;1.90;;;;;;;-0.02;90.48;98638.09;1747623;82;21326;-77
2022/01/15 06:08:18;;;;;;;4.03;1.90;;;;;;;-0.17;89.86;98640.94;1749062;82;21140;-77
2022/01/15 06:11:25;;;;;;;5.28;1.67;;;;;;;-0.24;89.65;98647.89;1747515;81;21777;-82
2022/01/15 06:14:31;;;;;;;4.35;1.95;;;;;;;-0.28;87.18;98642.83;1749036;81;21837;-79
2022/01/15 06:17:37;;;;;;;3.20;1.47;;;;;;;-0.21;87.01;98663.22;1747850;82;21228;-79
2022/01/15 06:20:42;;;;;;;4.78;1.45;;;;;;;-0.16;87.12;98653.38;1749163;82;21334;-75
2022/01/15 06:23:48;;;;;;;1.95;1.00;;;;;;;-0.11;86.03;98655.95;1749360;82;21801;-80
2022/01/15 06:26:54;;;;;;;6.80;1.75;;;;;;;-0.02;85.28;98662.28;1748308;82;21279;-75
2022/01/15 06:30:02;;;;;;;3.87;1.15;;;;;;;0.06;84.39;98675.84;1749171;82;21307;-75
2022/01/15 06:33:08;;;;;;;4.67;1.62;;;;;;;0.20;84.02;98668.61;1734523;83;21868;-78
2022/01/15 06:36:13;;;;;;;2.62;1.00;;;;;;;0.30;83.61;98669.05;1733782;83;21172;-80
2022/01/15 06:39:19;;;;;;;3.58;1.40;;;;;;;0.33;82.72;98682.17;1734772;83;21164;-79
2022/01/15 06:42:24;;;;;;;6.55;1.60;;;;;;;0.33;82.68;98696.97;1734472;83;21215;-80
2022/01/15 06:45:29;;;;;;;6.80;1.50;;;;;;;0.35;82.53;98689.61;1734486;83;21278;-80
2022/01/15 06:48:35;;;;;;;5.65;1.40;;;;;;;0.38;82.45;98714.38;1734815;83;21824;-79
2022/01/15 06:51:40;;;;;;;10.25;1.87;;;;;;;0.37;82.77;98695.67;1734815;83;21199;-75
2022/01/15 06:54:46;;;;;;;6.25;1.57;;;;;;;0.38;82.89;98705.46;1734831;83;21270;-76
2022/01/15 06:57:51;;;;;;;12.13;1.95;;;;;;;0.36;83.34;98705.59;1749393;81;21813;-75
2022/01/15 07:00:56;;;;;;;7.22;1.30;;;;;;;0.39;83.02;98711.18;1754591;80;21322;-75
2022/01/15 07:04:01;;;;;;;5.50;1.45;;;;;;;0.39;82.75;98720.59;1754772;82;21312;-77
2022/01/15 07:07:05;;;;;;;5.05;2.02;;;;;;;0.40;83.02;98719.09;1754865;80;21735;-75
2022/01/15 07:10:10;;;;;;;3.47;1.45;;;;;;;0.44;82.73;98722.33;1754892;82;21276;-75
2022/01/15 07:13:20;;;;;;;7.00;1.40;;;;;;;0.44;82.01;98734.44;1754736;82;21294;-75
2022/01/15 07:16:24;;;;;;;3.65;1.42;;;;;;;0.44;82.23;98738.48;1754816;80;21339;-80
2022/01/15 07:19:31;;;;;;;4.17;1.50;;;;;;;0.45;82.03;98741.50;1755039;82;21773;-75
2022/01/15 07:22:36;;;;;;;4.83;1.45;;;;;;;0.40;81.57;98734.39;1754956;80;21951;-80
2022/01/15 07:25:41;;;;;;;3.67;1.32;;;;;;;0.35;81.81;98722.73;1754801;80;21193;-75
2022/01/15 07:28:48;;;;;;;6.67;2.20;;;;;;;0.38;82.31;98760.10;1754792;82;21279;-80
2022/01/15 07:31:53;;;;;;;8.28;1.90;;;;;;;0.50;81.87;98762.92;1754885;80;21310;-80
2022/01/15 07:34:58;;;;;;;2.85;1.32;;;;;;;0.62;81.53;98756.00;1754893;82;21319;-80
2022/01/15 07:38:03;;;;;;;3.33;1.52;;;;;;;0.75;80.91;98753.77;1754851;82;21734;-75
2022/01/15 07:41:12;;;;;;;4.17;1.30;;;;;;;0.85;79.25;98733.52;1754801;80;21318;-81
2022/01/15 07:44:16;;;;;;;6.95;1.37;;;;;;;0.86;79.04;98750.87;1754905;82;21260;-75
2022/01/15 07:47:21;;;;;;;5.22;1.52;;;;;;;0.86;78.34;98763.00;1754694;80;21184;-75
2022/01/15 07:50:26;;;;;;;2.55;1.17;;;;;;;0.84;77.99;98773.55;1754360;80;21275;-76
2022/01/15 07:53:32;;;;;;;3.80;1.27;;;;;;;0.88;77.65;98779.83;1754796;82;21291;-76
2022/01/15 07:56:37;;;;;;;5.95;1.50;;;;;;;0.94;78.41;98775.20;1754995;80;21353;-75
2022/01/15 07:59:42;;;;;;;4.85;1.67;;;;;;;1.00;77.11;98782.66;1715438;83;21313;-81
2022/01/15 08:02:48;;;;;;;9.45;1.55;;;;;;;1.04;77.68;98775.13;1715708;83;21306;-81
2022/01/15 08:05:53;;;;;;;5.62;1.50;;;;;;;1.04;77.07;98771.09;1715657;83;21321;-80
2022/01/15 08:08:58;;;;;;;4.75;1.45;;;;;;;1.01;76.40;98782.16;1715562;83;21605;-75
2022/01/15 08:12:03;;;;;;;3.72;1.70;;;;;;;0.98;76.30;98785.14;1715559;83;21314;-75
2022/01/15 08:15:09;;;;;;;6.92;1.42;;;;;;;0.97;77.23;98796.41;1715589;83;21157;-79
2022/01/15 08:18:14;;;;;;;10.38;1.70;;;;;;;1.01;77.54;98805.89;1715669;83;21912;-78
2022/01/15 08:21:19;;;;;;;4.37;1.45;;;;;;;1.09;76.73;98809.17;1715523;83;21892;-81
2022/01/15 08:24:24;;;;;;;6.03;1.85;;;;;;;1.16;75.83;98826.91;1715656;83;21211;-76
2022/01/15 08:27:30;;;;;;;8.88;1.75;;;;;;;1.21;76.61;98813.32;1715668;83;21306;-81
2022/01/15 08:30:35;;;;;;;12.78;1.60;;;;;;;1.24;74.28;98813.02;1715617;83;21857;-81
2022/01/15 08:33:40;;;;;;;6.42;1.42;;;;;;;1.35;75.64;98831.30;1715703;83;21796;-81
2022/01/15 08:36:45;;;;;;;5.12;1.42;;;;;;;1.42;74.04;98818.92;1715580;83;21227;-76
2022/01/15 08:39:51;;;;;;;5.25;1.80;;;;;;;1.50;74.21;98824.36;1715585;83;21153;-77
2022/01/15 08:42:56;;;;;;;3.27;1.47;;;;;;;1.55;73.83;98849.00;1715714;83;21315;-81
2022/01/15 08:46:02;;;;;;;3.00;1.10;;;;;;;1.58;73.96;98807.43;1715687;83;21287;-76
2022/01/15 08:49:07;;;;;;;8.35;2.00;;;;;;;1.60;74.21;98830.55;1715747;83;21275;-75
2022/01/15 08:52:12;;;;;;;4.78;1.37;;;;;;;1.59;73.50;98846.34;1715699;83;21235;-81
2022/01/15 08:55:17;;;;;;;4.03;1.40;;;;;;;1.57;73.77;98834.88;1715726;83;21274;-75
2022/01/15 08:58:23;;;;;;;4.83;1.42;;;;;;;1.57;73.91;98826.80;1718495;81;21847;-76
2022/01/15 09:01:29;;;;;;;3.77;1.25;;;;;;;1.56;73.27;98837.24;1741655;81;21303;-81
2022/01/15 09:04:35;;;;;;;4.05;1.47;;;;;;;1.61;74.98;98838.97;1741665;82;21264;-77
2022/01/15 09:07:39;;;;;;;3.52;1.20;;;;;;;1.62;74.84;98831.22;1741833;82;21303;-77
2022/01/15 09:10:44;;;;;;;10.15;1.72;;;;;;;1.63;74.21;98835.60;1741675;81;21216;-82
2022/01/15 09:13:49;;;;;;;10.53;1.82;;;;;;;1.66;74.75;98834.46;1741589;82;21300;-81
2022/01/15 09:16:54;;;;;;;4.67;1.80;;;;;;;1.69;73.72;98832.27;1765535;81;21826;-76
2022/01/15 09:20:00;;;;;;;3.47;1.70;;;;;;;1.73;74.45;98835.01;1772129;81;21253;-75
2022/01/15 09:23:04;;;;;;;7.22;2.60;;;;;;;1.71;74.35;98827.59;1772104;81;21277;-75
2022/01/15 09:26:19;;;;;;;6.83;1.75;;;;;;;1.71;74.59;98846.97;1771562;81;21216;-76
2022/01/15 09:32:42;;;;;;;5.10;1.60;;;;;;;1.39;78.76;98845.66;1772011;81;21272;-76
2022/01/15 09:35:48;;;;;;;3.83;1.22;;;;;;;1.36;78.28;98855.38;1771282;81;21307;-82
2022/01/15 09:38:55;;;;;;;5.58;1.47;;;;;;;1.42;76.72;98859.34;1771457;81;21181;-82
2022/01/15 09:42:02;;;;;;;4.22;1.47;;;;;;;1.49;76.33;98834.80;1770967;81;21303;-76
2022/01/15 09:45:07;;;;;;;10.28;1.40;;;;;;;1.53;74.29;98853.70;1771360;81;21882;-76
2022/01/15 09:48:14;;;;;;;6.12;1.40;;;;;;;1.56;75.42;98857.45;1772044;81;21323;-75
2022/01/15 09:51:18;;;;;;;3.37;1.27;;;;;;;1.59;74.29;98839.61;1772048;81;21284;-82
2022/01/15 09:54:24;;;;;;;2.87;1.02;;;;;;;1.55;73.77;98869.20;1772310;81;21185;-82
2022/01/15 09:57:29;;;;;;;6.87;1.70;;;;;;;1.56;74.98;98855.27;1772219;81;21691;-81
2022/01/15 10:00:33;;;;;;;4.22;1.35;;;;;;;1.60;73.60;98863.36;1778875;80;21188;-81
2022/01/15 10:03:38;;;;;;;4.50;1.30;;;;;;;1.58;75.09;98872.11;1785846;80;21745;-76
2022/01/15 10:06:43;;;;;;;5.60;1.40;;;;;;;1.56;74.93;98851.22;1785922;80;21189;-82
2022/01/15 10:09:49;;;;;;;2.98;1.42;;;;;;;1.61;75.46;98871.81;1785917;80;21133;-76
2022/01/15 10:12:54;;;;;;;3.67;1.10;;;;;;;1.62;74.50;98877.55;1785962;80;21129;-80
2022/01/15 10:16:10;;;;;;;3.02;1.47;;;;;;;1.67;74.68;98868.49;1785404;80;21180;-82
2022/01/15 10:19:15;;;;;;;6.35;1.17;;;;;;;1.71;74.30;98870.72;1785368;80;21824;-81
2022/01/15 10:22:24;;;;;;;3.17;1.07;;;;;;;1.69;74.06;98876.75;1744896;80;21869;-81
2022/01/15 10:25:33;;;;;;;1.98;1.00;;;;;;;1.70;73.35;98888.41;1785978;80;21255;-77
2022/01/15 10:29:11;;;;;;;5.67;1.42;;;;;;;1.67;73.56;98882.81;1785932;80;21319;-76
2022/01/15 10:32:20;;;;;;;3.93;1.33;;;;;;;1.64;74.24;98883.61;1786025;80;21331;-82
2022/01/15 10:35:24;;;;;;;8.33;1.50;;;;;;;1.70;75.40;98887.91;1785917;80;21969;-81
2022/01/15 10:38:30;;;;;;;1.85;0.90;;;;;;;1.83;74.32;98875.86;1785964;80;21161;-76
2022/01/15 10:41:41;;;;;;;6.70;1.60;;;;;;;1.93;74.04;98866.70;1785899;80;21291;-76
2022/01/15 10:44:47;;;;;;;4.03;1.52;;;;;;;2.07;73.41;98868.00;1785943;80;21291;-82
2022/01/15 10:47:55;;;;;;;4.90;1.20;;;;;;;2.16;72.47;98865.67;1785989;80;21165;-79
2022/01/15 10:51:07;;;;;;;4.00;1.30;;;;;;;2.10;71.62;98881.65;1785448;80;21327;-77
2022/01/15 10:54:12;;;;;;;10.50;1.20;;;;;;;1.98;70.15;98894.05;1785821;80;21149;-76
2022/01/15 10:57:17;;;;;;;4.80;1.47;;;;;;;1.96;69.61;98907.33;1785891;80;21220;-81
2022/01/15 11:00:25;;;;;;;3.20;1.30;;;;;;;1.97;70.08;98898.23;1784999;80;21773;-81
2022/01/15 11:03:33;;;;;;;3.40;1.20;;;;;;;1.98;70.06;98908.03;1780432;80;21296;-79
2022/01/15 11:06:47;;;;;;;8.50;1.62;;;;;;;1.98;70.95;98892.70;1780406;80;21826;-82
2022/01/15 11:09:55;;;;;;;4.05;1.40;;;;;;;1.94;70.42;98902.10;1780224;80;21272;-82
2022/01/15 11:13:04;;;;;;;4.17;1.37;;;;;;;1.90;69.58;98898.52;1780375;80;21272;-76
2022/01/15 11:16:16;;;;;;;3.85;1.45;;;;;;;1.86;68.64;98894.44;1780079;80;21299;-80
2022/01/15 11:19:19;;;;;;;3.52;1.40;;;;;;;1.83;69.35;98905.02;1780479;80;21141;-76
2022/01/15 11:22:26;;;;;;;6.85;1.37;;;;;;;1.82;71.80;98919.51;1780306;80;21296;-77
2022/01/15 11:25:31;;;;;;;4.78;1.40;;;;;;;1.70;73.66;98924.30;1780371;80;21268;-81
2022/01/15 11:28:38;;;;;;;1.20;0.90;;;;;;;1.54;76.04;98942.48;1780334;80;21825;-82
2022/01/15 11:31:45;;;;;;;3.77;1.25;;;;;;;1.42;77.24;98940.17;1747419;80;21337;-76
2022/01/15 11:35:10;;;;;;;3.87;1.10;;;;;;;1.29;78.57;98953.99;1748592;82;21792;-77
2022/01/15 11:38:16;;;;;;;3.98;1.40;;;;;;;1.20;76.70;98940.08;1749497;82;21285;-81
2022/01/15 11:41:41;;;;;;;2.80;1.20;;;;;;;1.20;79.76;98953.05;1748683;80;21337;-77
2022/01/15 11:44:47;;;;;;;5.05;1.42;;;;;;;1.17;85.64;98961.41;1749393;82;21152;-81
2022/01/15 11:47:53;;;;;;;5.30;1.75;;;;;;;1.00;89.15;98967.11;1749058;82;21178;-80
2022/01/15 11:51:26;;;;;;;1.52;1.20;;;;;;;0.80;91.79;98966.84;1748473;80;21831;-79
2022/01/15 11:54:31;;;;;;;4.65;1.20;;;;;;;0.63;93.39;98971.13;1749397;82;21338;-82
2022/01/15 11:57:42;;;;;;;5.20;1.80;;;;;;;0.55;94.63;98957.55;1747736;81;21314;-75
2022/01/15 12:00:51;;;;;;;5.50;1.52;;;;;;;0.54;95.00;98951.82;1747859;81;21736;-77
2022/01/15 12:03:57;;;;;;;8.95;2.25;;;;;;;0.50;95.07;98959.33;1729120;83;21200;-81
2022/01/15 12:07:14;;;;;;;5.85;1.70;;;;;;;0.51;95.20;98957.48;1729699;81;21801;-76
2022/01/15 12:10:24;;;;;;;6.80;1.90;;;;;;;0.56;95.00;98966.46;1729316;81;21208;-76
2022/01/15 12:13:37;;;;;;;2.02;1.40;;;;;;;0.59;94.80;98960.30;1730800;83;21268;-81
2022/01/15 12:16:42;;;;;;;5.97;1.92;;;;;;;0.61;94.36;98965.05;1729803;81;21773;-77
2022/01/15 12:19:48;;;;;;;7.55;1.87;;;;;;;0.65;94.00;98962.40;1730700;83;21271;-76
2022/01/15 12:23:03;;;;;;;2.60;1.42;;;;;;;0.70;93.68;98962.80;1730677;83;21169;-77
2022/01/15 12:26:08;;;;;;;10.82;1.42;;;;;;;0.73;92.37;98966.56;1730966;81;21224;-81
2022/01/15 12:29:12;;;;;;;4.75;1.30;;;;;;;0.77;90.77;98971.16;1712445;82;21187;-77
2022/01/15 12:32:17;;;;;;;5.80;1.37;;;;;;;0.87;89.71;98955.81;1730388;81;21296;-82
2022/01/15 12:35:26;;;;;;;4.00;1.40;;;;;;;0.96;87.46;98968.89;1730809;81;21272;-77
2022/01/15 12:38:33;;;;;;;4.15;1.15;;;;;;;1.04;85.41;98978.44;1730916;83;21312;-77
2022/01/15 12:41:38;;;;;;;2.45;1.30;;;;;;;1.09;83.89;98980.19;1730907;81;21224;-77
2022/01/15 12:44:57;;;;;;;2.72;1.20;;;;;;;1.17;83.36;98984.30;1730967;83;21272;-79
2022/01/15 12:48:01;;;;;;;3.57;1.30;;;;;;;1.20;82.30;98989.91;1731019;83;21200;-82
2022/01/15 12:51:15;;;;;;;4.62;1.52;;;;;;;1.24;80.75;98989.46;1730865;81;21219;-80
2022/01/15 12:54:21;;;;;;;3.85;1.27;;;;;;;1.26;80.14;98992.84;1730950;83;21267;-81
2022/01/15 12:57:55;;;;;;;5.03;1.50;;;;;;;1.22;79.73;98998.20;1729371;81;21314;-77
2022/01/15 13:01:02;;;;;;;1.25;1.05;;;;;;;1.22;79.52;98998.67;1730871;81;21326;-78
2022/01/15 13:04:06;;;;;;;5.65;1.40;;;;;;;1.21;79.28;99004.56;1745278;82;21808;-81
2022/01/15 13:07:12;;;;;;;2.70;1.20;;;;;;;1.21;79.22;99015.34;1734049;82;21305;-77
2022/01/15 13:10:33;;;;;;;4.60;1.50;;;;;;;1.21;79.32;99013.99;1753365;80;21285;-77
2022/01/15 13:13:48;;;;;;;3.50;1.22;;;;;;;1.20;79.87;99008.77;1754772;82;21273;-81
2022/01/15 13:16:53;;;;;;;2.47;1.30;;;;;;;1.18;79.57;99011.62;1753760;80;22142;-82
2022/01/15 13:19:59;;;;;;;2.15;1.20;;;;;;;1.18;79.62;99026.94;1754741;82;21282;-79
2022/01/15 13:23:05;;;;;;;3.10;1.30;;;;;;;1.17;79.86;99022.52;1753439;82;21329;-83
2022/01/15 13:26:10;;;;;;;4.95;1.42;;;;;;;1.16;79.85;99028.91;1754209;80;21839;-81
2022/01/15 13:29:22;;;;;;;3.35;1.60;;;;;;;1.14;79.87;99025.02;1754732;82;21819;-82
2022/01/15 13:32:28;;;;;;;4.07;1.20;;;;;;;1.14;78.88;99031.76;1755076;80;21285;-76
2022/01/15 13:35:43;;;;;;;2.40;1.07;;;;;;;1.17;79.19;99030.09;1753046;80;21878;-76
2022/01/15 13:38:50;;;;;;;3.30;1.72;;;;;;;1.19;79.99;99044.78;1754930;82;21290;-82
2022/01/15 13:41:56;;;;;;;3.52;1.32;;;;;;;1.13;81.40;99035.45;1754712;80;21828;-76
2022/01/15 13:45:03;;;;;;;2.70;1.25;;;;;;;1.04;82.85;99045.76;1754949;82;21855;-82
2022/01/15 13:48:18;;;;;;;6.53;1.40;;;;;;;0.94;84.13;99040.87;1735610;82;21289;-76
2022/01/15 13:55:11;;;;;;;7.50;1.47;;;;;;;0.78;86.57;99047.38;1754784;82;21273;-82
2022/01/15 13:58:21;;;;;;;6.22;1.42;;;;;;;0.71;87.07;99062.77;1754789;82;21273;-82
2022/01/15 14:01:29;;;;;;;2.25;1.22;;;;;;;0.66;87.55;99073.11;1754890;80;21183;-81
2022/01/15 14:04:45;;;;;;;4.90;1.47;;;;;;;0.64;87.98;99067.01;1754008;82;21305;-81
2022/01/15 14:07:53;;;;;;;4.58;1.82;;;;;;;0.65;88.33;99082.66;1754804;82;21320;-80
2022/01/15 14:10:58;;;;;;;1.65;1.10;;;;;;;0.61;88.19;99070.01;1754831;80;21175;-82
2022/01/15 14:14:12;;;;;;;2.30;1.22;;;;;;;0.62;88.05;99069.01;1751991;80;21255;-82
2022/01/15 14:17:17;;;;;;;5.40;1.40;;;;;;;0.64;88.10;99063.47;1785824;80;21204;-77
2022/01/15 14:20:40;;;;;;;4.60;1.32;;;;;;;0.62;87.80;99070.85;1772061;80;21152;-77
2022/01/15 14:23:44;;;;;;;4.67;1.60;;;;;;;0.64;87.46;99082.31;1784190;80;21339;-76
2022/01/15 14:27:01;;;;;;;6.12;1.30;;;;;;;0.63;87.29;99090.88;1786042;80;21319;-77
2022/01/15 14:30:08;;;;;;;5.17;2.15;;;;;;;0.61;87.52;99092.00;1785924;80;21133;-76
2022/01/15 14:33:14;;;;;;;5.62;1.85;;;;;;;0.56;87.43;99096.47;1785911;80;21268;-75
2022/01/15 14:36:18;;;;;;;7.10;1.52;;;;;;;0.52;87.55;99088.35;1785886;80;21330;-79
2022/01/15 14:39:23;;;;;;;3.33;1.52;;;;;;;0.51;87.51;99100.08;1785920;80;21801;-77
2022/01/15 14:42:30;;;;;;;5.03;1.50;;;;;;;0.54;87.40;99101.16;1785888;80;21295;-76
2022/01/15 14:45:36;;;;;;;4.42;1.50;;;;;;;0.57;86.98;99119.72;1785740;80;21247;-76
2022/01/15 14:48:42;;;;;;;5.15;1.37;;;;;;;0.60;86.23;99118.06;1785927;80;21314;-81
2022/01/15 14:51:49;;;;;;;3.95;1.32;;;;;;;0.66;85.02;99123.38;1754949;80;21829;-81
2022/01/15 14:54:53;;;;;;;5.25;1.42;;;;;;;0.72;83.86;99118.29;1755053;82;21268;-81
2022/01/15 14:57:58;;;;;;;2.30;1.42;;;;;;;0.76;82.98;99135.86;1754910;82;21824;-76
2022/01/15 15:01:03;;;;;;;2.35;1.32;;;;;;;0.80;82.36;99131.52;1754736;80;21212;-81
2022/01/15 15:04:09;;;;;;;1.25;1.10;;;;;;;0.82;82.71;99130.89;1754617;82;21331;-76
2022/01/15 15:07:15;;;;;;;7.70;1.67;;;;;;;0.80;83.51;99125.66;1711577;82;21310;-76
2022/01/15 15:10:21;;;;;;;2.72;1.22;;;;;;;0.76;84.47;99142.59;1709928;82;21204;-80
2022/01/15 15:13:27;;;;;;;4.50;1.57;;;;;;;0.73;85.12;99144.70;1711019;84;21307;-76